Aérodrome :
LOGIN :

S'inscrire | Disclaimer

   EN    FR    IT 

 










Légende :    VFR   VFR Marginal   IFR   IFR Intensif   IFR Très Intensif
Visi : 
Plafond : 
>= 8 km
>= 3000ft
5 à 8 km
1000 à 3000 ft
1500m à 5 km
500 à 1000 ft
800 à 1500m
200 à 500 ft
< 800m
< 200 ft
Symboles :   Orages  Brouillard  Fortes neiges  Fortes précipitations  Vent > 20 kt
SIGMETs :   Divers  Orages  Givrage  Turbulence  Onde Orograph.  Cendres Volcan.







- Altitude de l'aérodrome : 408 ft
- Code IATA : SOB


LHSM - Sarmellek Balaton

DERNIER METAR :
  • 221415Z 08009KT 9999 FEW020 BKN200 M01/M06 Q1011 NOSIG

METARs EXPIRÉS :
  • 221345Z 08007KT 9999 FEW020 BKN200 M00/M05 Q1012 NOSIG
  • 221315Z 06005KT 9999 FEW016 BKN200 M01/M04 Q1012 NOSIG
  • 221245Z 07005KT 9999 FEW016 BKN200 M01/M04 Q1013 NOSIG
  • 221215Z 07006KT 9999 FEW016 SCT083 BKN200 M01/M04 Q1013 NOSIG
  • 221145Z 07006KT 9000 NSC M01/M04 Q1014 NOSIG

TAF TAF LHSM
Valide du 22 à 12h jusqu'au 22 à 21h UTC


221115Z 2212/2221 07004KT 8000 NSC
TEMPO 2212/2218 5000 -SN SCT010 BKN070
BECMG 2218/2221 4000 -SN SCT005 OVC020
Pas de NOTAMs connus pour ce terrain.



MET'MAP, la Météo Aéronautique d'un coup d'oeil ! - Copyright ORBIFLY Décembre 2007 - Disclaimer

ORBIFLY MET'MAP TEAM :

Programmation & Développement : Alexandra Zaïnal
Conception & Développement : Baudouin d'Aumeries
Co-Programmation & Développement : Marc-Olivier Méhu
Soutien technique & logistique : Manuel Goepfert

Contact : metmap@orbifly.com




SOURCES & CREDITS :

   NOAA